Flight Track Log - Related Links

Times and Time Zones

All times are in EDT time to prevent confusion due to time zone crossing. See the JBU19 flight status page for this flight to view local times or setup timezone preferences in your user account.


Time Position Orientation Groundspeed Altitude Reporting Facility
EDT Latitude Longitude Course Direction KTS MPH feet Rate Location/Type
Sun 05:39:45 PM 42.3833 -71.0000 289° West 181 208 600  Level KA90
Sun 05:40:39 PM 42.4167 -70.9667 36° Northeast 179 206 1,900 1,263 Climbing KA90
Sun 05:41:39 PM 42.4500 -70.9000 56° Northeast 262 302 3,000 1,905 Climbing KA90
Sun 05:42:00 PM 42.5785 -70.8373 308° West  Level FlightAware Approximate
Sun 05:42:45 PM 42.5000 -70.8000 56° Northeast 281 323 5,900  Level KA90
Sun 05:43:00 PM 42.6439 -70.9587 300° West  Level FlightAware Approximate
Sun 05:43:36 PM 42.5575 -70.8167 348° North 302 348 7,600  Level Boston Center
Sun 05:44:00 PM 42.6986 -71.0899 300° West  Level FlightAware Approximate
Sun 05:44:37 PM 42.6064 -70.8831 315° West 245 282 9,900  Level Boston Center
Sun 05:45:00 PM 42.7548 -71.2193 289° West  Level FlightAware Approximate
Sun 05:45:34 PM 42.6536 -70.9892 301° West 255 293 12,000  Level Boston Center
Sun 05:46:35 PM 42.6861 -71.0872 294° West 302 348 13,000 1,140 Climbing Boston Center
Sun 05:47:35 PM 42.7192 -71.2306 287° West 345 397 14,300 1,300 Climbing Boston Center
Sun 05:48:35 PM 42.7517 -71.3544 290° West 380 437 15,600 1,736 Climbing Boston Center
Sun 05:49:36 PM 42.7883 -71.5122 288° West 394 453 17,800 1,613 Climbing Boston Center
Sun 05:50:34 PM 42.8186 -71.6419 288° West 400 460 18,800 1,169 Climbing Boston Center
Sun 05:51:34 PM 42.8550 -71.7886 289° West 400 460 20,100 1,190 Climbing Boston Center
Sun 05:52:35 PM 42.8911 -71.9414 288° West 407 468 21,200 1,082 Climbing Boston Center
Sun 05:53:36 PM 42.9272 -72.0969 288° West 423 487 22,300 992 Climbing Boston Center
Sun 05:54:36 PM 42.9567 -72.2244 288° West 429 494 23,200 1,160 Climbing Boston Center
Sun 05:55:35 PM 43.0131 -72.4286 291° West 442 509 24,600 1,050 Climbing Boston Center
Sun 05:56:36 PM 43.0483 -72.5936 286° West 447 514 25,300 793 Climbing Boston Center
Sun 05:57:36 PM 43.0772 -72.7472 284° West 458 527 26,200 966 Climbing Boston Center
Sun 05:58:34 PM 43.1122 -72.9122 286° West 458 527 27,200 900 Climbing Boston Center
Sun 05:59:36 PM 43.1572 -73.0919 289° West 452 520 28,000 885 Climbing Boston Center
Sun 06:00:36 PM 43.1936 -73.2544 287° West 452 520 29,000 877 Climbing Boston Center
Sun 06:01:46 PM 43.2256 -73.4203 285° West 452 520 29,900 962 Climbing Boston Center
Sun 06:02:47 PM 43.2697 -73.6147 287° West 457 526 31,100 1,091 Climbing Boston Center
Sun 06:03:47 PM 43.2994 -73.7608 286° West 457 526 32,100 942 Climbing Boston Center
Sun 06:04:48 PM 43.3289 -73.8900 287° West 452 520 33,000 934 Climbing Boston Center
Sun 06:05:49 PM 43.3681 -74.0767 286° West 441 507 34,000 508 Climbing Boston Center
Sun 06:06:46 PM 43.4033 -74.2406 287° West 436 502 34,000  Level Boston Center
Sun 06:07:46 PM 43.4381 -74.4017 287° West 436 502 34,000  Level Boston Center
Sun 06:08:47 PM 43.4728 -74.5658 286° West 436 502 34,000  Level Boston Center
Sun 06:09:46 PM 43.4994 -74.6956 286° West 436 502 34,000 -50 Level Boston Center
Sun 06:10:46 PM 43.5433 -74.8919 287° West 441 507 33,900 -50 Descending Boston Center
Sun 06:11:47 PM 43.5772 -75.0567 286° West 441 507 33,900 50 Level Boston Center
Sun 06:12:47 PM 43.6033 -75.1897 285° West 441 507 34,000 50 Climbing Boston Center
Sun 06:13:48 PM 43.6442 -75.3897 286° West 446 513 34,000 -50 Level Boston Center
Sun 06:14:48 PM 43.6753 -75.5550 285° West 446 513 33,900 -50 Descending Boston Center
Sun 06:15:49 PM 43.7081 -75.7203 285° West 446 513 33,900  Level Boston Center
Sun 06:16:47 PM 43.7428 -75.8861 286° West 446 513 33,900 47 Level Boston Center
Sun 06:17:58 PM 43.7750 -76.0547 285° West 446 513 34,000  Climbing Boston Center
Sun 06:18:59 PM 43.8125 -76.2556 285° West 451 519 33,900 -49 Descending Boston Center
Sun 06:20:00 PM 43.8442 -76.4219 285° West 451 519 33,900 50 Level Boston Center
Sun 06:20:58 PM 43.8781 -76.5856 286° West 451 519 34,000 50 Climbing Boston Center
Sun 06:22:00 PM 43.9333 -76.7333 297° West 470 541 34,000  Level Toronto Center
Sun 06:23:00 PM 44.0000 -76.9167 297° West 480 552 34,000  Level Toronto Center
Sun 06:24:00 PM 44.0667 -77.0500 305° West 480 552 34,000  Level Toronto Center
Sun 06:25:00 PM 44.1333 -77.2333 297° West 480 552 34,000  Level Toronto Center
Sun 06:26:00 PM 44.2167 -77.4000 305° West 480 552 34,000  Level Toronto Center
Sun 06:27:00 PM 44.2667 -77.5333 298° West 490 564 34,000  Level Toronto Center
Sun 06:28:00 PM 44.3167 -77.7167 291° West 470 541 34,000  Level Toronto Center
Sun 06:29:00 PM 44.3333 -77.8833 278° West 450 518 34,000  Level Toronto Center
Sun 06:30:00 PM 44.3500 -78.0667 277° West 430 495 34,000  Level Toronto Center
Sun 06:31:00 PM 44.3500 -78.2333 270° West 430 495 34,000 -50 Level Toronto Center
Sun 06:32:00 PM 44.3667 -78.4000 278° West 430 495 33,900  Descending Toronto Center
Sun 06:33:00 PM 44.4000 -78.5667 286° West 430 495 34,000 50 Climbing Toronto Center
Sun 06:34:00 PM 44.4000 -78.7167 270° West 430 495 34,000  Level Toronto Center
Sun 06:35:00 PM 44.4167 -78.9167 277° West 430 495 34,000  Level Toronto Center
Sun 06:36:00 PM 44.4167 -79.0667 270° West 430 495 34,000  Level Toronto Center
Sun 06:37:00 PM 44.4333 -79.2333 278° West 430 495 34,000  Level Toronto Center
Sun 06:38:00 PM 44.4500 -79.4000 278° West 430 495 34,000  Level Toronto Center
Sun 06:39:00 PM 44.4500 -79.5833 270° West 440 506 34,000  Level Toronto Center
Sun 06:40:00 PM 44.4667 -79.7500 278° West 440 506 34,000  Level Toronto Center
Sun 06:41:00 PM 44.4667 -79.9167 270° West 440 506 34,000 -50 Level Toronto Center
Sun 06:42:00 PM 44.4833 -80.0833 278° West 440 506 33,900  Descending Toronto Center
Sun 06:43:00 PM 44.5000 -80.2667 277° West 450 518 34,000 50 Climbing Toronto Center
Sun 06:44:00 PM 44.5000 -80.4333 270° West 450 518 34,000  Level Toronto Center
Sun 06:45:00 PM 44.5167 -80.6167 277° West 450 518 34,000  Level Toronto Center
Sun 06:46:00 PM 44.5167 -80.7833 270° West 450 518 34,000  Level Toronto Center
Sun 06:47:00 PM 44.5167 -80.9667 270° West 450 518 34,000  Level Toronto Center
Sun 06:48:00 PM 44.5167 -81.1333 270° West 450 518 34,000  Level Toronto Center
Sun 06:49:00 PM 44.5167 -81.3167 270° West 450 518 34,000  Level Toronto Center
Sun 06:50:00 PM 44.5167 -81.4833 270° West 450 518 34,000  Level Toronto Center
Sun 06:51:00 PM 44.5333 -81.6667 277° West 450 518 34,000  Level Toronto Center
Sun 06:52:00 PM 44.5333 -81.8333 270° West 450 518 34,000  Level Toronto Center
Sun 06:53:00 PM 44.5167 -82.0167 263° West 460 529 34,000  Level Toronto Center
Sun 06:54:00 PM 44.5167 -82.2000 270° West 460 529 34,000  Level Toronto Center
Sun 06:55:00 PM 44.5333 -82.4000 277° West 450 518 34,000  Level Toronto Center
Sun 06:56:00 PM 44.5333 -82.5500 270° West 460 529 34,000  Level Toronto Center
Sun 06:57:00 PM 44.5167 -82.7167 262° West 450 518 34,000  Level Toronto Center
Sun 06:58:00 PM 44.5333 -82.9000 277° West 450 518 34,000  Level Toronto Center
Sun 06:59:00 PM 44.5333 -83.0667 270° West 460 529 34,000 -50 Level Toronto Center
Sun 07:00:00 PM 44.5167 -83.2500 263° West 450 518 33,900  Descending Toronto Center
Sun 07:01:00 PM 44.5167 -83.4167 270° West 450 518 34,000 50 Climbing Toronto Center
Sun 07:02:00 PM 44.5333 -83.6167 277° West 440 506 34,000  Level Toronto Center
Sun 07:03:00 PM 44.5167 -83.7667 261° West 450 518 34,000  Level Toronto Center
Sun 07:03:30 PM 44.5317 -83.8453 285° West 449 517 34,000 -58 Level Minneapolis Center
Sun 07:04:44 PM 44.5294 -84.0508 269° West 442 509 33,900 -44 Descending Minneapolis Center
Sun 07:05:46 PM 44.5269 -84.2569 269° West 442 509 33,900 48 Level Minneapolis Center
Sun 07:06:48 PM 44.5247 -84.4261 269° West 438 504 34,000  Climbing Minneapolis Center
Sun 07:07:50 PM 44.5214 -84.5958 268° West 436 502 33,900 -48 Descending Minneapolis Center
Sun 07:08:52 PM 44.5194 -84.7667 269° West 439 505 33,900 48 Level Minneapolis Center
Sun 07:09:54 PM 44.5156 -84.9383 268° West 441 507 34,000  Climbing Minneapolis Center
Sun 07:10:56 PM 44.5114 -85.1442 268° West 441 507 33,900  Descending Minneapolis Center
Sun 07:11:58 PM 44.5078 -85.3167 268° West 443 510 34,000 48 Climbing Minneapolis Center
Sun 07:13:01 PM 44.5033 -85.4867 268° West 439 505 34,000  Level Minneapolis Center
Sun 07:14:03 PM 44.4986 -85.6583 268° West 439 505 34,000  Level Minneapolis Center
Sun 07:15:05 PM 44.4936 -85.8292 268° West 437 503 34,000  Level Minneapolis Center
Sun 07:16:07 PM 44.4883 -85.9975 268° West 431 496 34,000  Level Minneapolis Center
Sun 07:17:09 PM 44.4833 -86.1653 268° West 428 493 34,000 -48 Level Minneapolis Center
Sun 07:18:11 PM 44.4775 -86.3625 268° West 421 484 33,900 -49 Descending Minneapolis Center
Sun 07:19:12 PM 44.4728 -86.4964 267° West 426 490 33,900 48 Level Minneapolis Center
Sun 07:20:15 PM 44.4658 -86.6964 267° West 429 494 34,000 48 Climbing Minneapolis Center
Sun 07:21:17 PM 44.4586 -86.8650 267° West 433 498 34,000  Level Minneapolis Center
Sun 07:22:19 PM 44.4519 -87.0347 267° West 435 501 34,000  Level Minneapolis Center
Sun 07:23:33 PM 44.4453 -87.2069 267° West 440 506 34,000  Level Minneapolis Center
Sun 07:24:36 PM 44.4375 -87.4258 267° West 445 512 34,000  Level Minneapolis Center
Sun 07:25:38 PM 44.4294 -87.6253 267° West 443 510 34,000 145 Level Minneapolis Center
Sun 07:26:40 PM 44.4206 -87.7944 266° West 440 506 34,300 823 Climbing Minneapolis Center
Sun 07:27:42 PM 44.4153 -87.9319 267° West 432 497 35,700 750 Climbing Minneapolis Center
Sun 07:28:56 PM 44.4072 -88.1197 267° West 420 483 36,000 132 Climbing Minneapolis Center
Sun 07:29:58 PM 44.3953 -88.3322 266° West 413 475 36,000  Level Minneapolis Center
Sun 07:31:01 PM 44.3872 -88.4906 266° West 411 473 36,000  Level Minneapolis Center
Sun 07:32:03 PM 44.3781 -88.6519 266° West 416 479 36,000  Level Minneapolis Center
Sun 07:33:05 PM 44.3692 -88.8150 266° West 421 484 36,000  Level Minneapolis Center
Sun 07:34:07 PM 44.3606 -88.9767 266° West 420 483 36,000  Level Minneapolis Center
Sun 07:35:09 PM 44.3497 -89.1644 265° West 418 481 36,000  Level Minneapolis Center
Sun 07:36:11 PM 44.3408 -89.3228 266° West 414 476 36,000  Level Minneapolis Center
Sun 07:37:12 PM 44.3325 -89.4556 265° West 412 474 36,000  Level Minneapolis Center
Sun 07:38:15 PM 44.3217 -89.6392 265° West 409 471 36,000  Level Minneapolis Center
Sun 07:39:17 PM 44.3111 -89.7978 265° West 410 472 36,000  Level Minneapolis Center
Sun 07:40:31 PM 44.2994 -89.9786 265° West 406 467 36,000  Level Minneapolis Center
Sun 07:41:34 PM 44.2881 -90.1578 265° West 400 460 36,000  Level Minneapolis Center
Sun 07:42:36 PM 44.2772 -90.3103 264° West 397 457 36,000  Level Minneapolis Center
Sun 07:43:37 PM 44.2694 -90.4386 265° West 398 458 36,000  Level Minneapolis Center
Sun 07:44:40 PM 44.2561 -90.6200 264° West 399 459 36,000  Level Minneapolis Center
Sun 07:45:42 PM 44.2425 -90.8036 264° West 402 463 36,000  Level Minneapolis Center
Sun 07:46:44 PM 44.2317 -90.9567 264° West 400 460 36,000  Level Minneapolis Center
Sun 07:47:46 PM 44.2208 -91.1067 264° West 396 456 36,000  Level Minneapolis Center
Sun 07:48:48 PM 44.2103 -91.2583 265° West 398 458 36,000  Level Minneapolis Center
Sun 07:49:50 PM 44.1972 -91.4100 263° West 398 458 36,000  Level Minneapolis Center
Sun 07:50:52 PM 44.1817 -91.5947 263° West 400 460 36,000  Level Minneapolis Center
Sun 07:52:06 PM 44.1694 -91.7750 265° West 395 455 36,000  Level Minneapolis Center
Sun 07:53:08 PM 44.1567 -91.9253 263° West 392 451 36,000  Level Minneapolis Center
Sun 07:54:10 PM 44.1433 -92.0742 263° West 391 450 36,000  Level Minneapolis Center
Sun 07:55:12 PM 44.1319 -92.2239 264° West 390 449 36,000  Level Minneapolis Center
Sun 07:56:13 PM 44.1178 -92.3717 262° West 387 445 36,000  Level Minneapolis Center
Sun 07:57:15 PM 44.1031 -92.5486 263° West 384 442 36,000  Level Minneapolis Center
Sun 07:58:17 PM 44.0897 -92.6936 263° West 379 436 36,000  Level Minneapolis Center
Sun 07:59:19 PM 44.0778 -92.8397 264° West 380 437 36,000 -48 Level Minneapolis Center
Sun 08:00:21 PM 44.0631 -92.9867 262° West 382 440 35,900  Descending Minneapolis Center
Sun 08:01:24 PM 44.0508 -93.1339 263° West 383 441 36,000 48 Climbing Minneapolis Center
Sun 08:02:25 PM 44.0367 -93.2833 263° West 386 444 36,000  Level Minneapolis Center
Sun 08:03:27 PM 44.0225 -93.4342 263° West 392 451 36,000  Level Minneapolis Center
Sun 08:04:41 PM 44.0036 -93.6167 262° West 396 456 36,000  Level Minneapolis Center
Sun 08:05:43 PM 43.9867 -93.7989 263° West 395 455 36,000  Level Minneapolis Center
Sun 08:06:45 PM 43.9714 -93.9503 262° West 396 456 36,000  Level Minneapolis Center
Sun 08:07:47 PM 43.9564 -94.1014 262° West 396 456 36,000  Level Minneapolis Center
Sun 08:08:48 PM 43.9442 -94.2219 262° West 394 453 36,000  Level Minneapolis Center
Sun 08:09:51 PM 43.9228 -94.4214 262° West 390 449 36,000  Level Minneapolis Center
Sun 08:10:52 PM 43.9106 -94.5406 262° West 391 450 36,000  Level Minneapolis Center
Sun 08:11:54 PM 43.8919 -94.7178 262° West 389 448 36,000  Level Minneapolis Center
Sun 08:12:56 PM 43.8758 -94.8664 261° West 389 448 36,000  Level Minneapolis Center
Sun 08:14:00 PM 43.8485 -95.0278 257° West  Level FlightAware Approximate
Sun 08:14:59 PM 43.8425 -95.1622 257° West 390 449 36,000  Level Minneapolis Center
Sun 08:16:01 PM 43.8172 -95.2792 253° West 398 458 36,000  Level Minneapolis Center
Sun 08:17:03 PM 43.7500 -95.4761 245° Southwest 402 463 36,000  Level Minneapolis Center
Sun 08:18:05 PM 43.7017 -95.6181 245° Southwest 405 466 36,000  Level Minneapolis Center
Sun 08:19:07 PM 43.6533 -95.7606 245° Southwest 407 468 36,000  Level Minneapolis Center
Sun 08:20:08 PM 43.6144 -95.8733 245° Southwest 406 467 36,000  Level Minneapolis Center
Sun 08:21:10 PM 43.5561 -96.0406 244° Southwest 403 464 36,000  Level Minneapolis Center
Sun 08:22:12 PM 43.5083 -96.1794 245° Southwest 400 460 36,000  Level Minneapolis Center
Sun 08:23:14 PM 43.4686 -96.2911 244° Southwest 402 463 36,000  Level Minneapolis Center
Sun 08:24:16 PM 43.4106 -96.4581 244° Southwest 402 463 36,000  Level Minneapolis Center
Sun 08:25:17 PM 43.3528 -96.6203 244° Southwest 399 459 36,000  Level Minneapolis Center
Sun 08:26:19 PM 43.3039 -96.7586 244° Southwest 399 459 36,000  Level Minneapolis Center
Sun 08:27:21 PM 43.2556 -96.8975 244° Southwest 401 461 36,000  Level Minneapolis Center
Sun 08:28:23 PM 43.2072 -97.0344 244° Southwest 401 461 36,000  Level Minneapolis Center
Sun 08:29:24 PM 43.1678 -97.1447 244° Southwest 403 464 36,000  Level Minneapolis Center
Sun 08:30:26 PM 43.1089 -97.3086 244° Southwest 400 460 36,000  Level Minneapolis Center
Sun 08:31:28 PM 43.0600 -97.4447 244° Southwest 399 459 36,000  Level Minneapolis Center
Sun 08:32:30 PM 43.0006 -97.6039 243° Southwest 394 453 36,000  Level Minneapolis Center
Sun 08:33:32 PM 42.9519 -97.7381 244° Southwest 394 453 36,000  Level Minneapolis Center
Sun 08:34:34 PM 42.9033 -97.8728 244° Southwest 396 456 36,000  Level Minneapolis Center
Sun 08:35:36 PM 42.8522 -98.0039 242° Southwest 395 455 36,000  Level Minneapolis Center
Sun 08:36:37 PM 42.8122 -98.1092 243° Southwest 392 451 36,000  Level Minneapolis Center
Sun 08:37:39 PM 42.7489 -98.2883 244° Southwest 395 455 36,000  Level Minneapolis Center
Sun 08:38:41 PM 42.6989 -98.4222 243° Southwest 397 457 36,000  Level Minneapolis Center
Sun 08:39:43 PM 42.6489 -98.5539 243° Southwest 394 453 36,000  Level Minneapolis Center
Sun 08:40:45 PM 42.5978 -98.6869 242° Southwest 397 457 36,000  Level Minneapolis Center
Sun 08:41:47 PM 42.5481 -98.8192 243° Southwest 395 455 36,000  Level Minneapolis Center
Sun 08:42:49 PM 42.4975 -98.9506 242° Southwest 395 455 36,000  Level Minneapolis Center
Sun 08:43:51 PM 42.4364 -99.1086 242° Southwest 395 455 36,000  Level Minneapolis Center
Sun 08:44:52 PM 42.3869 -99.2408 243° Southwest 395 455 36,000  Level Minneapolis Center
Sun 08:45:54 PM 42.3350 -99.3717 242° Southwest 396 456 36,000  Level Minneapolis Center
Sun 08:47:03 PM 42.2728 -99.5319 242° Southwest 399 459 36,000  Level Denver Center
Sun 08:47:58 PM 42.2322 -99.6367 242° Southwest 398 458 36,000  Level Minneapolis Center
Sun 08:49:00 PM 42.1803 -99.7675 242° Southwest 398 458 36,000  Level Minneapolis Center
Sun 08:50:01 PM 42.1383 -99.8744 242° Southwest 400 460 36,000  Level Minneapolis Center
Sun 08:51:10 PM 42.0656 -100.0575 242° Southwest 402 463 36,000  Level Denver Center
Sun 08:52:12 PM 42.0069 -100.2028 242° Southwest 398 458 36,000  Level Denver Center
Sun 08:53:14 PM 41.9578 -100.3272 242° Southwest 396 456 36,000  Level Denver Center
Sun 08:54:15 PM 41.9075 -100.4517 242° Southwest 397 457 36,000  Level Denver Center
Sun 08:55:17 PM 41.8489 -100.5961 241° Southwest 396 456 36,000  Level Denver Center
Sun 08:56:19 PM 41.7903 -100.7411 242° Southwest 397 457 36,000  Level Denver Center
Sun 08:57:21 PM 41.7400 -100.8647 241° Southwest 396 456 36,000  Level Denver Center
Sun 08:58:22 PM 41.6819 -101.0064 241° Southwest 392 451 36,000  Level Denver Center
Sun 08:59:24 PM 41.6314 -101.1278 241° Southwest 391 450 36,000  Level Denver Center
Sun 09:00:26 PM 41.5728 -101.2700 241° Southwest 394 453 36,000  Level Denver Center
Sun 09:01:27 PM 41.5231 -101.3914 241° Southwest 391 450 36,000  Level Denver Center
Sun 09:02:29 PM 41.4706 -101.5144 240° Southwest 398 458 36,000  Level Denver Center
Sun 09:03:31 PM 41.4117 -101.6578 241° Southwest 397 457 36,000  Level Denver Center
Sun 09:04:32 PM 41.3603 -101.7794 241° Southwest 395 455 36,000  Level Denver Center
Sun 09:05:34 PM 41.3000 -101.9219 241° Southwest 397 457 36,000  Level Denver Center
Sun 09:06:36 PM 41.2467 -102.0439 240° Southwest 398 458 36,000  Level Denver Center
Sun 09:07:37 PM 41.1881 -102.1844 241° Southwest 393 452 36,000  Level Denver Center
Sun 09:08:39 PM 41.1361 -102.3061 240° Southwest 395 455 36,000  Level Denver Center
Sun 09:09:41 PM 41.0753 -102.4447 240° Southwest 390 449 36,000  Level Denver Center
Sun 09:10:54 PM 41.0233 -102.5636 240° Southwest 391 450 36,000  Level Denver Center
Sun 09:11:56 PM 40.9544 -102.7225 240° Southwest 391 450 36,000  Level Denver Center
Sun 09:12:58 PM 40.9019 -102.8439 240° Southwest 396 456 36,000  Level Denver Center
Sun 09:14:00 PM 40.8408 -102.9831 240° Southwest 393 452 36,000 44 Level Denver Center
Sun 09:15:13 PM 40.7842 -103.1119 240° Southwest 397 457 36,100  Climbing Denver Center
Sun 09:16:27 PM 40.7194 -103.2589 240° Southwest 389 448 36,000 -44 Descending Denver Center
Sun 09:17:29 PM 40.6533 -103.4050 239° Southwest 389 448 36,000  Level Denver Center
Sun 09:18:31 PM 40.5994 -103.5264 240° Southwest 385 443 36,000  Level Denver Center
Sun 09:19:33 PM 40.5439 -103.6497 239° Southwest 391 450 36,000  Level Denver Center
Sun 09:20:34 PM 40.4889 -103.7731 240° Southwest 393 452 36,000  Level Denver Center
Sun 09:21:36 PM 40.4222 -103.9253 240° Southwest 405 466 36,000  Level Denver Center
Sun 09:22:38 PM 40.3656 -104.0478 239° Southwest 395 455 36,000  Level Denver Center
Sun 09:23:39 PM 40.3089 -104.1719 239° Southwest 396 456 36,000  Level Denver Center
Sun 09:24:41 PM 40.2528 -104.2950 239° Southwest 395 455 36,000  Level Denver Center
Sun 09:25:43 PM 40.1956 -104.4189 239° Southwest 398 458 36,000  Level Denver Center
Sun 09:26:45 PM 40.1397 -104.5411 239° Southwest 394 453 36,000  Level Denver Center
Sun 09:27:47 PM 40.0719 -104.6892 239° Southwest 397 457 36,000  Level Denver Center
Sun 09:28:48 PM 40.0153 -104.8122 239° Southwest 400 460 36,000  Level Denver Center
Sun 09:30:02 PM 39.9586 -104.9319 238° Southwest 391 450 36,000  Level Denver Center
Sun 09:31:04 PM 39.8894 -105.0789 239° Southwest 397 457 36,000  Level Denver Center
Sun 09:32:06 PM 39.8314 -105.2008 238° Southwest 399 459 36,000  Level Denver Center
Sun 09:33:08 PM 39.7717 -105.3250 238° Southwest 405 466 36,000  Level Denver Center
Sun 09:34:09 PM 39.7017 -105.4708 238° Southwest 402 463 36,000  Level Denver Center
Sun 09:35:11 PM 39.6444 -105.5917 238° Southwest 395 455 36,000 484 Level Denver Center
Sun 09:36:13 PM 39.5867 -105.7117 238° Southwest 382 440 37,000 968 Climbing Denver Center
Sun 09:37:15 PM 39.5319 -105.8261 238° Southwest 374 430 38,000 488 Climbing Denver Center
Sun 09:38:16 PM 39.4792 -105.9408 239° Southwest 373 429 38,000  Level Denver Center
Sun 09:39:18 PM 39.4211 -106.0578 237° Southwest 384 442 38,000  Level Denver Center
Sun 09:40:20 PM 39.3533 -106.1969 238° Southwest 380 437 38,000  Level Denver Center
Sun 09:41:22 PM 39.2994 -106.3067 238° Southwest 378 435 38,000  Level Denver Center
Sun 09:42:24 PM 39.2458 -106.4169 238° Southwest 379 436 38,000  Level Denver Center
Sun 09:43:25 PM 39.1819 -106.5467 238° Southwest 382 440 38,000  Level Denver Center
Sun 09:44:27 PM 39.1169 -106.6506 231° Southwest 387 445 38,000  Level Denver Center
Sun 09:45:29 PM 39.0311 -106.7636 226° Southwest 394 453 38,000  Level Denver Center
Sun 09:46:31 PM 38.9567 -106.8614 226° Southwest 397 457 38,000  Level Denver Center
Sun 09:47:33 PM 38.8725 -106.9739 226° Southwest 393 452 38,000  Level Denver Center
Sun 09:48:34 PM 38.8106 -107.0578 227° Southwest 388 447 38,000  Level Denver Center
Sun 09:49:36 PM 38.7353 -107.1581 226° Southwest 386 444 38,000  Level Denver Center
Sun 09:50:38 PM 38.6461 -107.2775 226° Southwest 388 447 38,000  Level Denver Center
Sun 09:51:40 PM 38.5742 -107.3756 227° Southwest 391 450 38,000  Level Denver Center
Sun 09:52:42 PM 38.4892 -107.4867 226° Southwest 391 450 38,000  Level Denver Center
Sun 09:53:43 PM 38.4158 -107.5814 225° Southwest 391 450 38,000  Level Denver Center
Sun 09:54:45 PM 38.3397 -107.6989 230° Southwest 388 447 38,000  Level Denver Center
Sun 09:55:59 PM 38.2783 -107.8289 239° Southwest 385 443 38,000  Level Denver Center
Sun 09:57:13 PM 38.2164 -107.9608 239° Southwest 387 445 38,000  Level Denver Center
Sun 09:58:15 PM 38.1533 -108.0925 239° Southwest 389 448 38,000  Level Denver Center
Sun 09:59:17 PM 38.0908 -108.2211 238° Southwest 384 442 38,000  Level Denver Center
Sun 10:00:19 PM 38.0317 -108.3453 239° Southwest 385 443 38,000  Level Denver Center
Sun 10:01:21 PM 37.9775 -108.4561 238° Southwest 385 443 38,000  Level Denver Center
Sun 10:02:23 PM 37.9150 -108.5822 238° Southwest 382 440 38,000  Level Denver Center
Sun 10:03:24 PM 37.8611 -108.6933 238° Southwest 384 442 38,000  Level Denver Center
Sun 10:04:26 PM 37.8067 -108.8036 238° Southwest 386 444 38,000  Level Denver Center
Sun 10:05:28 PM 37.7433 -108.9308 238° Southwest 382 440 38,000  Level Denver Center
Sun 10:06:30 PM 37.6897 -109.0406 238° Southwest 383 441 38,000  Level Denver Center
Sun 10:07:32 PM 37.6258 -109.1683 238° Southwest 386 444 38,000  Level Denver Center
Sun 10:08:45 PM 37.5717 -109.2772 238° Southwest 385 443 38,000  Level Denver Center
Sun 10:09:48 PM 37.5067 -109.4067 238° Southwest 390 449 38,000  Level Denver Center
Sun 10:10:50 PM 37.4422 -109.5356 238° Southwest 390 449 38,000  Level Denver Center
Sun 10:11:51 PM 37.3767 -109.6647 237° Southwest 392 451 38,000  Level Denver Center
Sun 10:12:53 PM 37.3217 -109.7756 238° Southwest 392 451 38,000  Level Denver Center
Sun 10:13:55 PM 37.2653 -109.8861 237° Southwest 393 452 38,000  Level Denver Center
Sun 10:14:57 PM 37.2011 -110.0125 238° Southwest 387 445 38,000  Level Denver Center
Sun 10:15:59 PM 37.1347 -110.1403 237° Southwest 390 449 38,000  Level Denver Center
Sun 10:17:00 PM 37.0747 -110.2589 238° Southwest 388 447 38,000  Level Denver Center
Sun 10:18:02 PM 37.0275 -110.3503 237° Southwest 391 450 38,000  Level Denver Center
Sun 10:19:04 PM 36.9564 -110.4878 237° Southwest 390 449 38,000  Level Denver Center
Sun 10:20:05 PM 36.9089 -110.5789 237° Southwest 389 448 38,000  Level Denver Center
Sun 10:21:08 PM 36.8378 -110.7167 237° Southwest 391 450 38,000  Level Denver Center
Sun 10:22:09 PM 36.7772 -110.8308 237° Southwest 393 452 38,000  Level Denver Center
Sun 10:23:11 PM 36.7183 -110.9447 237° Southwest 392 451 38,000  Level Denver Center
Sun 10:24:13 PM 36.6472 -111.0803 237° Southwest 389 448 38,000  Level Denver Center
Sun 10:25:14 PM 36.5872 -111.1931 236° Southwest 391 450 38,000  Level Denver Center
Sun 10:26:16 PM 36.5269 -111.3050 236° Southwest 390 449 38,000  Level Denver Center
Sun 10:27:18 PM 36.4692 -111.4169 237° Southwest 387 445 38,000  Level Denver Center
Sun 10:28:19 PM 36.4072 -111.5308 236° Southwest 393 452 38,000  Level Denver Center
Sun 10:29:21 PM 36.3475 -111.6442 237° Southwest 392 451 38,000  Level Denver Center
Sun 10:30:23 PM 36.2867 -111.7569 236° Southwest 393 452 38,000  Level Denver Center
Sun 10:30:53 PM 36.2486 -111.8269 236° Southwest 394 453 38,000  Level Los Angeles Center
Sun 10:31:54 PM 36.1872 -111.9400 236° Southwest 395 455 38,000  Level Los Angeles Center
Sun 10:32:55 PM 36.1322 -112.0422 236° Southwest 396 456 38,000  Level Los Angeles Center
Sun 10:33:57 PM 36.0586 -112.1772 236° Southwest 397 457 38,000  Level Los Angeles Center
Sun 10:34:59 PM 36.0039 -112.2800 237° Southwest 394 453 38,000  Level Los Angeles Center
Sun 10:36:12 PM 35.9372 -112.4000 236° Southwest 394 453 38,000  Level Los Angeles Center
Sun 10:37:14 PM 35.8644 -112.5331 236° Southwest 394 453 38,000  Level Los Angeles Center
Sun 10:38:16 PM 35.8025 -112.6447 236° Southwest 396 456 38,000  Level Los Angeles Center
Sun 10:39:18 PM 35.7417 -112.7564 236° Southwest 397 457 38,000  Level Los Angeles Center
Sun 10:40:31 PM 35.6694 -112.8861 236° Southwest 397 457 38,000  Level Los Angeles Center
Sun 10:41:34 PM 35.5944 -113.0214 236° Southwest 398 458 38,000  Level Los Angeles Center
Sun 10:42:35 PM 35.5314 -113.1336 235° Southwest 399 459 38,000  Level Los Angeles Center
Sun 10:43:38 PM 35.4683 -113.2478 236° Southwest 401 461 38,000  Level Los Angeles Center
Sun 10:44:51 PM 35.3953 -113.3769 235° Southwest 401 461 38,000  Level Los Angeles Center
Sun 10:45:53 PM 35.3197 -113.5103 235° Southwest 401 461 38,000  Level Los Angeles Center
Sun 10:46:55 PM 35.2567 -113.6208 235° Southwest 401 461 38,000  Level Los Angeles Center
Sun 10:47:56 PM 35.1939 -113.7322 235° Southwest 401 461 38,000  Level Los Angeles Center
Sun 10:48:58 PM 35.1314 -113.8436 236° Southwest 400 460 38,000  Level Los Angeles Center
Sun 10:50:00 PM 35.0556 -113.9769 235° Southwest 402 463 38,000 -435 Level Los Angeles Center
Sun 10:51:02 PM 34.9925 -114.0875 235° Southwest 401 461 37,100 -927 Descending Los Angeles Center
Sun 10:52:03 PM 34.9294 -114.1975 235° Southwest 399 459 36,100 -1,756 Descending Los Angeles Center
Sun 10:53:05 PM 34.8531 -114.3239 234° Southwest 411 473 33,500 -2,661 Descending Los Angeles Center
Sun 10:54:07 PM 34.7842 -114.4439 235° Southwest 431 496 30,600 -1,588 Descending Los Angeles Center
Sun 10:55:21 PM 34.6828 -114.5681 225° Southwest 431 496 29,900 -265 Descending Los Angeles Center
Sun 10:56:23 PM 34.5975 -114.6647 223° Southwest 421 484 30,000  Climbing Los Angeles Center
Sun 10:57:25 PM 34.5153 -114.7606 224° Southwest 410 472 29,900  Descending Los Angeles Center
Sun 10:58:26 PM 34.4481 -114.8364 223° Southwest 412 474 30,000 49 Climbing Los Angeles Center
Sun 10:59:28 PM 34.3497 -114.9467 223° Southwest 403 464 30,000 -48 Level Los Angeles Center
Sun 11:00:30 PM 34.2589 -115.0494 223° Southwest 375 432 29,900  Descending Los Angeles Center
Sun 11:01:31 PM 34.1839 -115.1328 223° Southwest 368 423 30,000 48 Climbing Los Angeles Center
Sun 11:02:34 PM 34.1078 -115.2192 223° Southwest 375 432 30,000 -48 Level Los Angeles Center
Sun 11:03:35 PM 34.0283 -115.3069 222° Southwest 385 443 29,900  Descending Los Angeles Center
Sun 11:04:37 PM 33.9464 -115.3992 223° Southwest 401 461 30,000  Climbing Los Angeles Center
Sun 11:05:38 PM 33.8642 -115.4908 223° Southwest 403 464 29,900 -195 Descending Los Angeles Center
Sun 11:06:40 PM 33.7833 -115.5819 223° Southwest 399 459 29,600 -709 Descending Los Angeles Center
Sun 11:07:45 PM 33.6869 -115.6872 222° Southwest 392 451 28,400 -1,191 Descending Los Angeles Center
Sun 11:08:56 PM 33.6039 -115.7875 225° Southwest 358 412 26,900 -1,455 Descending Los Angeles Center
Sun 11:09:57 PM 33.5164 -115.8256 200° South 355 409 25,200 -1,707 Descending Los Angeles Center
Sun 11:10:59 PM 33.4200 -115.8239 179° South 348 400 23,400 -1,597 Descending Los Angeles Center
Sun 11:12:01 PM 33.3214 -115.8231 180° South 351 404 21,900 -1,403 Descending Los Angeles Center
Sun 11:13:03 PM 33.2425 -115.8581 200° South 329 379 20,500 -2,081 Descending Los Angeles Center
Sun 11:14:05 PM 33.2025 -115.9586 245° Southwest 333 383 17,600 -2,488 Descending Los Angeles Center
Sun 11:15:06 PM 33.1531 -116.0808 244° Southwest 341 392 15,400 -1,854 Descending Los Angeles Center
Sun 11:16:08 PM 33.1122 -116.1808 244° Southwest 338 389 13,800 -677 Descending Los Angeles Center
Sun 11:17:10 PM 33.0722 -116.2797 244° Southwest 335 386 14,000 -194 Climbing Los Angeles Center
Sun 11:18:12 PM 33.0344 -116.3725 244° Southwest 330 380 13,400 -968 Descending Los Angeles Center
Sun 11:19:14 PM 32.9836 -116.4553 234° Southwest 325 374 12,000 -1,463 Descending Los Angeles Center
Sun 11:20:15 PM 32.8853 -116.5125 206° Southwest 327 376 10,400 -1,220 Descending Los Angeles Center
Sun 11:21:17 PM 32.8097 -116.5567 206° Southwest 319 367 9,500 -1,161 Descending Los Angeles Center
Sun 11:22:19 PM 32.7397 -116.5933 204° Southwest 289 333 8,000 -1,065 Descending Los Angeles Center
Sun 11:23:21 PM 32.6783 -116.6350 210° Southwest 277 319 7,300 -871 Descending Los Angeles Center
Sun 11:24:23 PM 32.6703 -116.7078 263° West 235 270 6,200 -634 Descending Los Angeles Center
Sun 11:25:24 PM 32.6717 -116.7964 271° West 225 259 6,000 -488 Descending Los Angeles Center
Sun 11:26:26 PM 32.6703 -116.8556 268° West 190 219 5,200 -857 Descending Los Angeles Center
Sun 11:27:30 PM 32.6672 -116.9144 266° West 180 207 4,200 -774 Descending Los Angeles Center
Sun 11:28:30 PM 32.6797 -116.9711 285° West 180 207 3,600 -787 Descending Los Angeles Center
Sun 11:29:32 PM 32.6950 -117.0278 288° West 180 207 2,600 -864 Descending Los Angeles Center
Sun 11:30:35 PM 32.7083 -117.0850 285° West 180 207 1,800 -634 Descending Los Angeles Center
Sun 11:31:35 PM 32.7169 -117.1253 284° West 169 194 1,300 -836 Descending Los Angeles Center
Sun 11:32:37 PM 32.7303 -117.1783 287° West 143 165 100 -1,161 Descending Los Angeles Center

Login

Don't have an account? Register now (free) for customized features, flight alerts, and more!